Rescue Aktia Porvoo — OJ7304 — position and weather

sailwx.info

Track history (hours):
 
Tides and Currents Weather Stations Pressure Air Temp Water Temp Dewpoint Dewpoint Depression Visibility Wind Speed Wind Dir Waves Ship Positions

Rescue Aktia Porvoo

Last reported at 2017-Aug-16 18:02 UTC. Time now 2017-Aug-18 05:03 UTC.
Position N 60°20' E 025°35'.

Length 12 m; draft 1 m.

Type: SAR. MMSI: 230012240.

Date/timePositionNaut miles runAvg speedWind from/ knotsBaromVisibWave heightAir tempDewpointWater temp
2017-Aug-16 18:02N 60°20' E 025°35'0 0.0
2017-Aug-16 18:00N 60°20' E 025°35'1 2.6
2017-Aug-16 17:30N 60°19' E 025°35'1 1.5
2017-Aug-16 17:00N 60°18' E 025°34'2 3.2
2017-Aug-16 16:31N 60°20' E 025°35'2 3.2
2017-Aug-16 16:00N 60°19' E 025°34'2 3.4
2017-Aug-16 15:30N 60°20' E 025°35'  
2017-Aug-13 18:20N 60°19' E 025°34'928.3
2017-Aug-13 18:01N 60°12' E 025°22'918.5
2017-Aug-13 17:30N 60°10' E 025°04'1 1.9
2017-Aug-13 17:00N 60°10' E 025°05'2 4.9
2017-Aug-13 16:30N 60°10' E 025°10'3 5.6
2017-Aug-13 16:00N 60°11' E 025°16'3 5.8
2017-Aug-13 15:30N 60°12' E 025°21'3 5.9
2017-Aug-13 15:00N 60°13' E 025°27'2 4.2
2017-Aug-13 14:30N 60°13' E 025°31'611.4
2017-Aug-13 14:01N 60°19' E 025°34'2 0.1
2017-Aug-12 13:45N 60°20' E 025°35'0 0.8
2017-Aug-12 13:31N 60°20' E 025°35'611.5
2017-Aug-12 13:00N 60°14' E 025°32'5 9.0
2017-Aug-12 12:31N 60°13' E 025°24'1 2.9
2017-Aug-12 12:00N 60°14' E 025°22'3 6.8
2017-Aug-12 11:31N 60°12' E 025°27'3 5.2
2017-Aug-12 11:01N 60°13' E 025°31'1 2.6
2017-Aug-12 10:30N 60°14' E 025°32'0 0.0
2017-Aug-12 10:01N 60°14' E 025°32'0 0.0
2017-Aug-12 09:31N 60°14' E 025°32'0 0.0
2017-Aug-12 09:01N 60°14' E 025°32'611.9
2017-Aug-12 08:30N 60°20' E 025°35'0 1.0
2017-Aug-12 08:01N 60°20' E 025°34'510.9
2017-Aug-12 07:30N 60°14' E 025°32'0 0.0
2017-Aug-12 07:00N 60°14' E 025°32'0 0.0
2017-Aug-12 06:30N 60°14' E 025°32'0 0.0
2017-Aug-12 06:00N 60°14' E 025°32'0 0.0
2017-Aug-12 05:30N 60°14' E 025°32'0 0.0
2017-Aug-12 05:00N 60°14' E 025°32'0 0.0
2017-Aug-12 04:30N 60°14' E 025°32'0 0.0
2017-Aug-12 04:00N 60°14' E 025°32'0 0.0
2017-Aug-12 03:30N 60°14' E 025°32'0 0.0
2017-Aug-12 03:00N 60°14' E 025°32'0 0.0
2017-Aug-12 02:30N 60°14' E 025°32'0 0.0
2017-Aug-12 02:00N 60°14' E 025°32'0 0.0
2017-Aug-12 01:30N 60°14' E 025°32'0 0.0
2017-Aug-12 01:00N 60°14' E 025°32'0 0.0
2017-Aug-12 00:30N 60°14' E 025°32'0 0.0
2017-Aug-12 00:00N 60°14' E 025°32'0 0.0
2017-Aug-11 23:30N 60°14' E 025°32'0 0.0
2017-Aug-11 23:00N 60°14' E 025°32'0 0.0
2017-Aug-11 22:30N 60°14' E 025°32'0 0.0
2017-Aug-11 22:00N 60°14' E 025°32'0 0.0
2017-Aug-11 21:30N 60°14' E 025°32'0 0.0
2017-Aug-11 21:00N 60°14' E 025°32'0 0.0
2017-Aug-11 20:30N 60°14' E 025°32'1 1.6
2017-Aug-11 20:01N 60°14' E 025°31'4 7.9
2017-Aug-11 19:30N 60°15' E 025°23'0 0.0
2017-Aug-11 19:01N 60°15' E 025°23'4 7.1
2017-Aug-11 18:30N 60°15' E 025°31'611.1
2017-Aug-11 18:00N 60°16' E 025°42'2 3.5
2017-Aug-11 17:30N 60°14' E 025°42'3 5.7
2017-Aug-11 17:00N 60°12' E 025°38'3 6.8
2017-Aug-11 16:30N 60°14' E 025°32'1 1.3
2017-Aug-11 16:00N 60°14' E 025°32'0 0.0
2017-Aug-11 15:30N 60°14' E 025°32'612.0
2017-Aug-11 15:01N 60°20' E 025°35'612.0
2017-Aug-11 14:30N 60°15' E 025°30'1 1.3
2017-Aug-11 13:30N 60°14' E 025°32'0 0.0
2017-Aug-11 13:01N 60°14' E 025°32'0 0.0
2017-Aug-11 12:30N 60°14' E 025°32'0 0.0
2017-Aug-11 12:01N 60°14' E 025°32'2 4.5
2017-Aug-11 11:30N 60°16' E 025°31'0 0.7
2017-Aug-11 11:00N 60°16' E 025°31'4 8.3
2017-Aug-11 10:30N 60°20' E 025°34'0 0.0
2017-Aug-10 17:08N 60°20' E 025°35'0 0.0
2017-Aug-10 17:00N 60°20' E 025°35'2 3.3
2017-Aug-10 16:30N 60°19' E 025°35'0 0.0
2017-Aug-10 16:00N 60°19' E 025°35'0 0.9
2017-Aug-10 15:31N 60°19' E 025°35'4 8.6
2017-Aug-10 15:00N 60°22' E 025°39'1 2.2
2017-Aug-10 14:30N 60°23' E 025°40'0 0.0
2017-Aug-10 14:00N 60°23' E 025°40'1 1.5
2017-Aug-10 13:30N 60°23' E 025°41'713.8
2017-Aug-10 13:00N 60°17' E 025°33'3 5.1
2017-Aug-10 12:30N 60°14' E 025°32'0 0.0
2017-Aug-10 12:00N 60°14' E 025°32'0 0.0
2017-Aug-10 11:30N 60°14' E 025°32'0 0.0
2017-Aug-10 11:00N 60°14' E 025°32'0 0.0
2017-Aug-10 10:31N 60°14' E 025°32'4 7.6
2017-Aug-10 10:00N 60°18' E 025°34'2 4.3
2017-Aug-10 09:30N 60°20' E 025°35'0 0.0
2017-Aug-09 16:51N 60°20' E 025°35'0 0.0
2017-Aug-09 16:30N 60°20' E 025°35'0 0.0
2017-Aug-09 16:00N 60°20' E 025°35'0 0.0
2017-Aug-09 15:30N 60°20' E 025°35'0 0.0
2017-Aug-09 15:00N 60°20' E 025°35'2 3.2
2017-Aug-09 14:30N 60°19' E 025°35'1 1.9
2017-Aug-09 14:00N 60°19' E 025°36'1 1.3
2017-Aug-09 13:30N 60°19' E 025°35'2 3.2
2017-Aug-09 13:00N 60°20' E 025°35'0 0.0
2017-Aug-08 18:35N 60°20' E 025°35'0 2.7
2017-Aug-08 18:30N 60°20' E 025°35'611.4
2017-Aug-08 18:00N 60°14' E 025°32'0 0.1
2017-Aug-08 17:30N 60°14' E 025°32'0 0.0
2017-Aug-08 17:00N 60°14' E 025°32'0 0.0
2017-Aug-08 16:30N 60°14' E 025°32'0 0.0
2017-Aug-08 16:00N 60°14' E 025°32'0 0.0
2017-Aug-08 15:30N 60°14' E 025°32'4 8.9
2017-Aug-08 15:01N 60°19' E 025°35'0 0.9
2017-Aug-08 14:31N 60°19' E 025°35'1 2.1
2017-Aug-08 14:01N 60°19' E 025°34'  
Track history (hours):
 
Tides and Currents Weather Stations Pressure Air Temp Water Temp Dewpoint Dewpoint Depression Visibility Wind Speed Wind Dir Waves Ship Positions

Rescue Aktia Porvoo

Last reported at 2017-Aug-16 18:02 UTC. Time now 2017-Aug-18 05:03 UTC.
Position N 60°20' E 025°35'.

Length 12 m; draft 1 m.

Type: SAR. MMSI: 230012240.

Date/timePositionNaut miles runAvg speedWind from/ knotsBaromVisibWave heightAir tempDewpointWater temp
2017-Aug-16 18:02N 60°20' E 025°35'0 0.0
2017-Aug-16 18:00N 60°20' E 025°35'1 2.6
2017-Aug-16 17:30N 60°19' E 025°35'1 1.5
2017-Aug-16 17:00N 60°18' E 025°34'2 3.2
2017-Aug-16 16:31N 60°20' E 025°35'2 3.2
2017-Aug-16 16:00N 60°19' E 025°34'2 3.4
2017-Aug-16 15:30N 60°20' E 025°35'  
2017-Aug-13 18:20N 60°19' E 025°34'928.3
2017-Aug-13 18:01N 60°12' E 025°22'918.5
2017-Aug-13 17:30N 60°10' E 025°04'1 1.9
2017-Aug-13 17:00N 60°10' E 025°05'2 4.9
2017-Aug-13 16:30N 60°10' E 025°10'3 5.6
2017-Aug-13 16:00N 60°11' E 025°16'3 5.8
2017-Aug-13 15:30N 60°12' E 025°21'3 5.9
2017-Aug-13 15:00N 60°13' E 025°27'2 4.2
2017-Aug-13 14:30N 60°13' E 025°31'611.4
2017-Aug-13 14:01N 60°19' E 025°34'2 0.1
2017-Aug-12 13:45N 60°20' E 025°35'0 0.8
2017-Aug-12 13:31N 60°20' E 025°35'611.5
2017-Aug-12 13:00N 60°14' E 025°32'5 9.0
2017-Aug-12 12:31N 60°13' E 025°24'1 2.9
2017-Aug-12 12:00N 60°14' E 025°22'3 6.8
2017-Aug-12 11:31N 60°12' E 025°27'3 5.2
2017-Aug-12 11:01N 60°13' E 025°31'1 2.6
2017-Aug-12 10:30N 60°14' E 025°32'0 0.0
2017-Aug-12 10:01N 60°14' E 025°32'0 0.0
2017-Aug-12 09:31N 60°14' E 025°32'0 0.0
2017-Aug-12 09:01N 60°14' E 025°32'611.9
2017-Aug-12 08:30N 60°20' E 025°35'0 1.0
2017-Aug-12 08:01N 60°20' E 025°34'510.9
2017-Aug-12 07:30N 60°14' E 025°32'0 0.0
2017-Aug-12 07:00N 60°14' E 025°32'0 0.0
2017-Aug-12 06:30N 60°14' E 025°32'0 0.0
2017-Aug-12 06:00N 60°14' E 025°32'0 0.0
2017-Aug-12 05:30N 60°14' E 025°32'0 0.0
2017-Aug-12 05:00N 60°14' E 025°32'0 0.0
2017-Aug-12 04:30N 60°14' E 025°32'0 0.0
2017-Aug-12 04:00N 60°14' E 025°32'0 0.0
2017-Aug-12 03:30N 60°14' E 025°32'0 0.0
2017-Aug-12 03:00N 60°14' E 025°32'0 0.0
2017-Aug-12 02:30N 60°14' E 025°32'0 0.0
2017-Aug-12 02:00N 60°14' E 025°32'0 0.0
2017-Aug-12 01:30N 60°14' E 025°32'0 0.0
2017-Aug-12 01:00N 60°14' E 025°32'0 0.0
2017-Aug-12 00:30N 60°14' E 025°32'0 0.0
2017-Aug-12 00:00N 60°14' E 025°32'0 0.0
2017-Aug-11 23:30N 60°14' E 025°32'0 0.0
2017-Aug-11 23:00N 60°14' E 025°32'0 0.0
2017-Aug-11 22:30N 60°14' E 025°32'0 0.0
2017-Aug-11 22:00N 60°14' E 025°32'0 0.0
2017-Aug-11 21:30N 60°14' E 025°32'0 0.0
2017-Aug-11 21:00N 60°14' E 025°32'0 0.0
2017-Aug-11 20:30N 60°14' E 025°32'1 1.6
2017-Aug-11 20:01N 60°14' E 025°31'4 7.9
2017-Aug-11 19:30N 60°15' E 025°23'0 0.0
2017-Aug-11 19:01N 60°15' E 025°23'4 7.1
2017-Aug-11 18:30N 60°15' E 025°31'611.1
2017-Aug-11 18:00N 60°16' E 025°42'2 3.5
2017-Aug-11 17:30N 60°14' E 025°42'3 5.7
2017-Aug-11 17:00N 60°12' E 025°38'3 6.8
2017-Aug-11 16:30N 60°14' E 025°32'1 1.3
2017-Aug-11 16:00N 60°14' E 025°32'0 0.0
2017-Aug-11 15:30N 60°14' E 025°32'612.0
2017-Aug-11 15:01N 60°20' E 025°35'612.0
2017-Aug-11 14:30N 60°15' E 025°30'1 1.3
2017-Aug-11 13:30N 60°14' E 025°32'0 0.0
2017-Aug-11 13:01N 60°14' E 025°32'0 0.0
2017-Aug-11 12:30N 60°14' E 025°32'0 0.0
2017-Aug-11 12:01N 60°14' E 025°32'2 4.5
2017-Aug-11 11:30N 60°16' E 025°31'0 0.7
2017-Aug-11 11:00N 60°16' E 025°31'4 8.3
2017-Aug-11 10:30N 60°20' E 025°34'0 0.0
2017-Aug-10 17:08N 60°20' E 025°35'0 0.0
2017-Aug-10 17:00N 60°20' E 025°35'2 3.3
2017-Aug-10 16:30N 60°19' E 025°35'0 0.0
2017-Aug-10 16:00N 60°19' E 025°35'0 0.9
2017-Aug-10 15:31N 60°19' E 025°35'4 8.6
2017-Aug-10 15:00N 60°22' E 025°39'1 2.2
2017-Aug-10 14:30N 60°23' E 025°40'0 0.0
2017-Aug-10 14:00N 60°23' E 025°40'1 1.5
2017-Aug-10 13:30N 60°23' E 025°41'713.8
2017-Aug-10 13:00N 60°17' E 025°33'3 5.1
2017-Aug-10 12:30N 60°14' E 025°32'0 0.0
2017-Aug-10 12:00N 60°14' E 025°32'0 0.0
2017-Aug-10 11:30N 60°14' E 025°32'0 0.0
2017-Aug-10 11:00N 60°14' E 025°32'0 0.0
2017-Aug-10 10:31N 60°14' E 025°32'4 7.6
2017-Aug-10 10:00N 60°18' E 025°34'2 4.3
2017-Aug-10 09:30N 60°20' E 025°35'0 0.0
2017-Aug-09 16:51N 60°20' E 025°35'0 0.0
2017-Aug-09 16:30N 60°20' E 025°35'0 0.0
2017-Aug-09 16:00N 60°20' E 025°35'0 0.0
2017-Aug-09 15:30N 60°20' E 025°35'0 0.0
2017-Aug-09 15:00N 60°20' E 025°35'2 3.2
2017-Aug-09 14:30N 60°19' E 025°35'1 1.9
2017-Aug-09 14:00N 60°19' E 025°36'1 1.3
2017-Aug-09 13:30N 60°19' E 025°35'2 3.2
2017-Aug-09 13:00N 60°20' E 025°35'0 0.0
2017-Aug-08 18:35N 60°20' E 025°35'0 2.7
2017-Aug-08 18:30N 60°20' E 025°35'611.4
2017-Aug-08 18:00N 60°14' E 025°32'0 0.1
2017-Aug-08 17:30N 60°14' E 025°32'0 0.0
2017-Aug-08 17:00N 60°14' E 025°32'0 0.0
2017-Aug-08 16:30N 60°14' E 025°32'0 0.0
2017-Aug-08 16:00N 60°14' E 025°32'0 0.0
2017-Aug-08 15:30N 60°14' E 025°32'4 8.9
2017-Aug-08 15:01N 60°19' E 025°35'0 0.9
2017-Aug-08 14:31N 60°19' E 025°35'1 2.1
2017-Aug-08 14:01N 60°19' E 025°34'  

Dump ship's entire track history